Time;durP1;ratioP1;P1;durP2;ratioP2;P2;SDS_P1;SDS_P2;PMS_P1;PMS_P2;Temp;Humidity;BMP_temperature;BMP_pressure;BME280_temperature;BME280_humidity;BME280_pressure;Samples;Min_cycle;Max_cycle;Signal;HPM_P1;HPM_P2
2022/07/02 00:01:00;;;;;;;2.07;0.73;;;13.10;99.90;;;;;;5117748;28;20183;-42
2022/07/02 00:03:31;;;;;;;2.57;1.13;;;13.10;99.90;;;;;;5117602;28;20209;-43
2022/07/02 00:05:59;;;;;;;1.10;0.87;;;13.00;99.90;;;;;;5117768;28;20634;-43
2022/07/02 00:08:27;;;;;;;1.27;1.03;;;13.00;99.90;;;;;;5117296;28;20676;-44
2022/07/02 00:10:54;;;;;;;1.50;1.10;;;13.00;99.90;;;;;;5117280;28;20170;-42
2022/07/02 00:13:21;;;;;;;2.00;1.07;;;12.90;99.90;;;;;;5117693;28;20560;-44
2022/07/02 00:15:47;;;;;;;1.53;1.07;;;12.90;99.90;;;;;;5117759;28;20625;-43
2022/07/02 00:18:12;;;;;;;1.90;0.90;;;12.90;99.90;;;;;;5117160;28;20178;-44
2022/07/02 00:20:40;;;;;;;1.67;1.23;;;12.90;99.90;;;;;;5116964;28;20560;-44
2022/07/02 00:23:06;;;;;;;1.40;1.00;;;12.80;99.90;;;;;;5117103;28;20178;-43
2022/07/02 00:25:40;;;;;;;3.10;1.10;;;12.70;99.90;;;;;;5117041;28;20710;-44
2022/07/02 00:28:07;;;;;;;1.00;0.83;;;12.70;99.90;;;;;;5117232;28;20528;-44
2022/07/02 00:30:33;;;;;;;1.50;0.80;;;12.70;99.90;;;;;;5116842;28;20246;-41
2022/07/02 00:33:00;;;;;;;1.87;0.80;;;12.60;99.90;;;;;;5117127;28;20216;-44
2022/07/02 00:35:26;;;;;;;2.47;1.20;;;12.60;99.90;;;;;;5117207;28;20209;-44
2022/07/02 00:37:53;;;;;;;1.17;0.90;;;12.60;99.90;;;;;;5116789;28;20482;-44
2022/07/02 00:40:19;;;;;;;2.10;0.97;;;12.50;99.90;;;;;;5115767;28;20695;-43
2022/07/02 00:42:47;;;;;;;1.57;1.10;;;12.50;99.90;;;;;;5116972;28;20190;-42
2022/07/02 00:45:15;;;;;;;1.20;1.10;;;12.50;99.90;;;;;;5116948;28;20309;-44
2022/07/02 00:47:41;;;;;;;2.13;1.17;;;12.40;99.90;;;;;;5116474;28;20568;-43
2022/07/02 00:50:07;;;;;;;0.93;0.93;;;12.40;99.90;;;;;;5116599;28;20209;-43
2022/07/02 00:52:34;;;;;;;2.57;1.00;;;12.40;99.90;;;;;;5116383;28;20206;-43
2022/07/02 00:54:59;;;;;;;0.97;0.93;;;12.30;99.90;;;;;;5116460;28;20171;-42
2022/07/02 00:57:25;;;;;;;1.10;1.00;;;12.30;99.90;;;;;;5116453;28;20189;-43
2022/07/02 00:59:50;;;;;;;1.53;1.00;;;12.30;99.90;;;;;;5116322;28;20205;-43
2022/07/02 01:02:20;;;;;;;3.90;1.23;;;12.20;99.90;;;;;;5116338;28;20634;-42
2022/07/02 01:04:47;;;;;;;4.43;1.27;;;12.20;99.90;;;;;;5116523;28;20204;-44
2022/07/02 01:07:13;;;;;;;1.57;1.10;;;12.20;99.90;;;;;;5116482;28;20174;-43
2022/07/02 01:12:26;;;;;;;5.33;1.30;;;12.10;99.90;;;;;;5116727;28;20560;-44
2022/07/02 01:14:54;;;;;;;1.73;1.00;;;12.10;99.90;;;;;;5116173;28;20178;-43
2022/07/02 01:17:20;;;;;;;2.80;1.20;;;12.10;99.90;;;;;;5116595;28;20179;-44
2022/07/02 01:19:46;;;;;;;3.80;1.07;;;12.10;99.90;;;;;;5116284;28;20534;-42
2022/07/02 01:22:19;;;;;;;1.73;1.03;;;12.10;99.90;;;;;;5116322;28;20181;-43
2022/07/02 01:24:50;;;;;;;5.40;1.30;;;12.00;99.90;;;;;;5116572;28;20227;-44
2022/07/02 01:27:17;;;;;;;1.67;1.20;;;12.00;99.90;;;;;;5116328;28;20174;-44
2022/07/02 01:29:44;;;;;;;2.60;1.03;;;12.00;99.90;;;;;;5115889;28;20216;-44
2022/07/02 01:32:10;;;;;;;2.40;1.00;;;12.00;99.90;;;;;;5115724;28;20192;-44
2022/07/02 01:34:42;;;;;;;2.83;1.10;;;11.90;99.90;;;;;;5116255;28;20185;-43
2022/07/02 01:37:10;;;;;;;5.77;1.30;;;12.00;99.90;;;;;;5115783;28;20169;-43
2022/07/02 01:39:37;;;;;;;2.03;1.30;;;11.90;99.90;;;;;;5115811;28;20194;-41
2022/07/02 01:42:05;;;;;;;2.20;1.17;;;11.90;99.90;;;;;;5115666;28;20631;-44
2022/07/02 01:44:31;;;;;;;2.57;0.93;;;11.80;99.90;;;;;;5115811;28;20182;-43
2022/07/02 01:46:57;;;;;;;2.30;1.10;;;11.80;99.90;;;;;;5115390;28;20198;-42
2022/07/02 01:49:22;;;;;;;3.03;1.20;;;11.80;99.90;;;;;;5115836;28;20310;-43
2022/07/02 01:51:48;;;;;;;1.20;0.80;;;11.70;99.90;;;;;;5115309;28;20197;-41
2022/07/02 01:54:14;;;;;;;4.10;1.37;;;11.70;99.90;;;;;;5115245;28;20327;-44
2022/07/02 01:56:39;;;;;;;5.13;1.00;;;11.60;99.90;;;;;;5115252;28;20543;-43
2022/07/02 01:59:06;;;;;;;1.47;1.03;;;11.60;99.90;;;;;;5115210;28;20194;-43
2022/07/02 02:01:32;;;;;;;3.27;1.10;;;11.60;99.90;;;;;;5115118;28;20174;-43
2022/07/02 02:03:57;;;;;;;2.87;1.00;;;11.60;99.90;;;;;;5115444;28;20200;-43
2022/07/02 02:06:23;;;;;;;2.67;1.13;;;11.60;99.90;;;;;;5097843;28;20189;-42
2022/07/02 02:08:49;;;;;;;1.13;0.83;;;11.60;99.90;;;;;;5115188;28;20209;-43
2022/07/02 02:11:15;;;;;;;1.50;1.00;;;11.50;99.90;;;;;;5115220;28;20182;-43
2022/07/02 02:13:40;;;;;;;2.83;1.00;;;11.50;99.90;;;;;;5115016;28;20717;-42
2022/07/02 02:16:06;;;;;;;4.07;1.00;;;11.50;99.90;;;;;;5114884;28;20197;-43
2022/07/02 02:18:32;;;;;;;2.60;0.93;;;11.40;99.90;;;;;;5114764;28;20218;-42
2022/07/02 02:20:57;;;;;;;2.43;1.27;;;11.40;99.90;;;;;;5115373;28;20248;-43
2022/07/02 02:23:23;;;;;;;2.63;1.03;;;11.40;99.90;;;;;;5114946;28;20190;-41
2022/07/02 02:25:49;;;;;;;0.80;0.80;;;11.40;99.90;;;;;;5114678;28;20226;-44
2022/07/02 02:28:14;;;;;;;6.73;1.20;;;11.30;99.90;;;;;;5114856;28;20183;-44
2022/07/02 02:30:40;;;;;;;2.13;0.97;;;11.40;99.90;;;;;;5096296;28;20673;-43
2022/07/02 02:33:06;;;;;;;2.53;1.13;;;11.30;99.90;;;;;;5114459;28;20220;-43
2022/07/02 02:35:31;;;;;;;1.20;0.97;;;11.30;99.90;;;;;;5096290;28;20177;-43
2022/07/02 02:37:57;;;;;;;4.23;1.00;;;11.20;99.90;;;;;;5114531;28;20656;-42
2022/07/02 02:40:22;;;;;;;7.07;1.30;;;11.20;99.90;;;;;;5114347;28;20190;-43
2022/07/02 02:42:48;;;;;;;3.33;1.40;;;11.20;99.90;;;;;;5114388;28;20212;-40
2022/07/02 02:45:14;;;;;;;4.93;1.10;;;11.20;99.90;;;;;;5114324;28;20174;-43
2022/07/02 02:47:40;;;;;;;1.93;0.90;;;11.20;99.90;;;;;;5114578;28;20202;-43
2022/07/02 02:50:06;;;;;;;3.17;1.10;;;11.10;99.90;;;;;;5114202;28;20200;-43
2022/07/02 02:52:32;;;;;;;1.90;1.00;;;11.10;99.90;;;;;;5114293;28;20208;-42
2022/07/02 02:54:57;;;;;;;0.93;0.87;;;11.10;99.90;;;;;;5114249;28;20196;-42
2022/07/02 02:57:23;;;;;;;2.27;1.07;;;11.10;99.90;;;;;;5114194;28;20174;-44
2022/07/02 02:59:48;;;;;;;3.87;0.90;;;11.00;99.90;;;;;;5114139;28;20194;-43
2022/07/02 03:02:14;;;;;;;7.40;1.10;;;11.00;99.90;;;;;;5113905;28;20173;-41
2022/07/02 03:04:39;;;;;;;1.33;1.00;;;11.00;99.90;;;;;;5114027;28;20639;-43
2022/07/02 03:07:05;;;;;;;1.10;0.90;;;11.00;99.90;;;;;;5114311;28;20232;-44
2022/07/02 03:09:31;;;;;;;2.03;1.00;;;10.90;99.90;;;;;;5114728;28;20205;-43
2022/07/02 03:11:56;;;;;;;2.10;1.07;;;10.90;99.90;;;;;;5114189;28;20536;-44
2022/07/02 03:14:22;;;;;;;2.60;1.07;;;10.90;99.90;;;;;;5113846;28;20254;-42
2022/07/02 03:16:47;;;;;;;0.80;0.80;;;10.80;99.90;;;;;;5114199;28;20280;-41
2022/07/02 03:19:13;;;;;;;3.07;1.00;;;10.80;99.90;;;;;;5113838;28;20668;-43
2022/07/02 03:21:39;;;;;;;1.90;0.90;;;10.80;99.90;;;;;;5114201;28;20174;-43
2022/07/02 03:24:05;;;;;;;2.67;0.93;;;10.80;99.90;;;;;;5114040;28;20185;-43
2022/07/02 03:26:30;;;;;;;1.10;1.00;;;10.80;99.90;;;;;;5113762;28;20660;-42
2022/07/02 03:28:56;;;;;;;4.93;1.00;;;10.80;99.90;;;;;;5113785;28;20194;-43
2022/07/02 03:31:21;;;;;;;2.40;1.20;;;10.70;99.90;;;;;;5114389;28;20195;-44
2022/07/02 03:33:47;;;;;;;2.83;1.20;;;10.70;99.90;;;;;;5095505;28;20539;-42
2022/07/02 03:36:12;;;;;;;1.60;1.00;;;10.70;99.90;;;;;;5114315;28;20173;-43
2022/07/02 03:38:39;;;;;;;1.30;0.97;;;10.70;99.90;;;;;;5113921;28;20636;-44
2022/07/02 03:41:06;;;;;;;1.33;1.07;;;10.80;99.90;;;;;;5114108;28;20205;-44
2022/07/02 03:43:32;;;;;;;1.17;1.00;;;10.70;99.90;;;;;;5114148;28;20182;-42
2022/07/02 03:45:58;;;;;;;2.10;0.93;;;10.70;99.90;;;;;;5114200;28;20178;-42
2022/07/02 03:48:23;;;;;;;1.00;1.00;;;10.70;99.90;;;;;;5113536;28;20203;-44
2022/07/02 03:50:49;;;;;;;2.30;1.10;;;10.70;99.90;;;;;;5113663;28;20174;-43
2022/07/02 03:53:14;;;;;;;2.53;1.10;;;10.70;99.90;;;;;;5113611;28;20208;-42
2022/07/02 03:55:40;;;;;;;4.97;1.37;;;10.70;99.90;;;;;;5113925;28;20173;-43
2022/07/02 03:58:06;;;;;;;3.57;1.50;;;10.70;99.90;;;;;;5113503;28;20183;-42
2022/07/02 04:00:31;;;;;;;4.73;1.00;;;10.70;99.90;;;;;;5113448;28;20193;-43
2022/07/02 04:02:57;;;;;;;1.03;0.93;;;10.70;99.90;;;;;;5114000;28;20649;-43
2022/07/02 04:05:22;;;;;;;4.17;1.10;;;10.70;99.90;;;;;;5113713;28;20185;-43
2022/07/02 04:07:48;;;;;;;1.20;1.10;;;10.70;99.90;;;;;;5113451;28;20180;-42
2022/07/02 04:10:13;;;;;;;1.20;1.10;;;10.70;99.90;;;;;;5113393;28;20204;-43
2022/07/02 04:12:39;;;;;;;2.00;1.33;;;10.70;99.90;;;;;;5113335;28;20233;-43
2022/07/02 04:15:05;;;;;;;3.77;1.23;;;10.70;99.90;;;;;;5115537;28;20205;-43
2022/07/02 04:17:31;;;;;;;4.60;1.10;;;10.70;99.90;;;;;;5117888;28;20168;-43
2022/07/02 04:19:56;;;;;;;3.70;1.73;;;10.80;99.90;;;;;;5117177;28;20226;-43
2022/07/02 04:22:22;;;;;;;2.37;1.60;;;10.80;99.90;;;;;;5117397;28;20172;-44
2022/07/02 04:24:48;;;;;;;3.97;1.30;;;10.90;99.90;;;;;;5117098;28;20177;-43
2022/07/02 04:27:14;;;;;;;4.70;1.63;;;10.90;99.90;;;;;;5117576;28;20580;-43
2022/07/02 04:29:40;;;;;;;1.57;1.23;;;10.90;99.90;;;;;;5117152;28;20211;-43
2022/07/02 04:32:06;;;;;;;4.40;1.47;;;11.00;99.90;;;;;;5116955;28;20519;-43
2022/07/02 04:34:32;;;;;;;4.47;1.33;;;11.00;99.90;;;;;;5117483;28;20195;-44
2022/07/02 04:36:57;;;;;;;2.33;1.37;;;11.00;99.90;;;;;;5116815;28;20173;-43
2022/07/02 04:39:23;;;;;;;3.33;1.47;;;11.10;99.90;;;;;;5116741;28;20602;-43
2022/07/02 04:41:48;;;;;;;2.87;1.20;;;11.10;99.90;;;;;;5116845;28;20261;-42
2022/07/02 04:44:14;;;;;;;5.10;1.50;;;11.10;99.90;;;;;;5116652;28;20204;-42
2022/07/02 04:46:40;;;;;;;2.20;1.40;;;11.20;99.90;;;;;;5116614;28;20242;-43
2022/07/02 04:49:05;;;;;;;5.57;1.63;;;11.30;99.90;;;;;;5116593;28;20196;-41
2022/07/02 04:51:31;;;;;;;3.13;1.40;;;11.30;99.90;;;;;;5117100;28;20584;-44
2022/07/02 04:53:57;;;;;;;3.40;1.70;;;11.40;99.90;;;;;;5116570;28;20177;-42
2022/07/02 04:56:24;;;;;;;5.73;1.70;;;11.40;99.90;;;;;;5116783;28;20186;-42
2022/07/02 04:58:50;;;;;;;6.63;1.60;;;11.50;99.90;;;;;;5116568;28;20207;-43
2022/07/02 05:01:16;;;;;;;4.87;1.70;;;11.60;99.90;;;;;;5116673;28;20651;-43
2022/07/02 05:03:42;;;;;;;5.23;1.30;;;11.60;99.90;;;;;;5116212;28;20316;-43
2022/07/02 05:06:08;;;;;;;3.63;1.47;;;11.70;99.90;;;;;;5116320;28;20212;-43
2022/07/02 05:08:33;;;;;;;8.30;1.70;;;11.70;99.90;;;;;;5116451;28;20181;-43
2022/07/02 05:10:59;;;;;;;3.27;1.50;;;11.80;99.90;;;;;;5098135;28;20194;-43
2022/07/02 05:13:25;;;;;;;2.47;1.57;;;11.80;99.90;;;;;;5116381;28;20185;-43
2022/07/02 05:15:51;;;;;;;4.70;2.00;;;11.90;99.90;;;;;;5116432;28;20242;-43
2022/07/02 05:18:16;;;;;;;3.23;1.50;;;12.00;99.90;;;;;;5117021;28;20587;-42
2022/07/02 05:20:42;;;;;;;6.67;1.60;;;12.10;99.90;;;;;;5118195;28;20204;-43
2022/07/02 05:23:08;;;;;;;5.23;1.70;;;12.10;99.90;;;;;;5118257;28;20207;-43
2022/07/02 05:25:34;;;;;;;1.97;1.50;;;12.20;99.90;;;;;;5122803;28;20213;-44
2022/07/02 05:27:59;;;;;;;2.43;1.70;;;12.30;99.90;;;;;;5120808;28;20709;-41
2022/07/02 05:30:25;;;;;;;4.80;2.10;;;12.30;99.90;;;;;;5116133;28;20296;-44
2022/07/02 05:32:51;;;;;;;2.07;1.50;;;12.50;99.90;;;;;;5116413;28;20188;-42
2022/07/02 05:35:16;;;;;;;2.93;1.77;;;12.60;99.90;;;;;;5115824;28;20210;-44
2022/07/02 05:37:42;;;;;;;2.17;1.47;;;12.70;99.90;;;;;;5097426;28;20630;-43
2022/07/02 05:40:09;;;;;;;3.50;1.37;;;12.80;99.90;;;;;;5115759;28;20205;-42
2022/07/02 05:42:34;;;;;;;2.60;1.87;;;12.90;99.90;;;;;;5115400;28;20210;-42
2022/07/02 05:45:00;;;;;;;4.47;1.53;;;13.00;99.90;;;;;;5115844;28;20545;-42
2022/07/02 05:47:26;;;;;;;2.53;1.30;;;13.10;99.90;;;;;;5115394;28;20250;-41
2022/07/02 05:49:52;;;;;;;9.27;2.03;;;13.20;99.90;;;;;;5115483;28;20285;-42
2022/07/02 05:52:18;;;;;;;7.03;1.77;;;13.40;99.90;;;;;;5115454;28;20200;-43
2022/07/02 05:54:44;;;;;;;2.33;1.50;;;13.40;99.90;;;;;;5115409;28;20177;-43
2022/07/02 05:57:10;;;;;;;3.20;1.40;;;13.60;99.90;;;;;;5115334;28;20223;-43
2022/07/02 05:59:36;;;;;;;1.60;1.50;;;13.70;99.90;;;;;;5115461;28;20233;-43
2022/07/02 06:02:03;;;;;;;5.10;1.70;;;13.80;99.90;;;;;;5115194;28;20173;-43
2022/07/02 06:04:28;;;;;;;3.93;1.53;;;14.00;99.90;;;;;;5115220;28;20292;-44
2022/07/02 06:09:38;;;;;;;5.33;1.40;;;14.30;99.90;;;;;;5115276;28;20200;-43
2022/07/02 06:12:04;;;;;;;4.17;1.70;;;14.50;99.90;;;;;;5097241;28;20178;-44
2022/07/02 06:14:29;;;;;;;3.03;1.03;;;14.80;99.90;;;;;;5117456;28;20187;-45
2022/07/02 06:16:55;;;;;;;2.47;1.37;;;15.00;99.90;;;;;;5098332;28;20178;-44
2022/07/02 06:19:22;;;;;;;3.60;1.13;;;15.30;99.90;;;;;;5116292;28;20270;-42
2022/07/02 06:21:47;;;;;;;4.07;1.40;;;15.50;99.90;;;;;;5116299;28;20518;-43
2022/07/02 06:24:13;;;;;;;2.40;1.13;;;15.90;99.90;;;;;;5098068;28;20260;-44
2022/07/02 06:26:39;;;;;;;2.60;1.20;;;16.20;99.90;;;;;;5116921;28;20532;-44
2022/07/02 06:29:04;;;;;;;3.67;1.40;;;16.50;99.90;;;;;;5117781;28;20186;-43
2022/07/02 06:31:30;;;;;;;2.63;1.30;;;16.70;99.90;;;;;;5118762;28;20213;-42
2022/07/02 06:33:56;;;;;;;4.37;1.30;;;17.10;99.90;;;;;;5118042;28;20699;-43
2022/07/02 06:36:24;;;;;;;1.23;1.00;;;17.50;99.90;;;;;;5117736;28;20185;-43
2022/07/02 06:38:50;;;;;;;3.43;0.90;;;17.80;99.90;;;;;;5117108;28;20862;-41
2022/07/02 06:44:00;;;;;;;1.53;0.80;;;18.40;99.90;;;;;;5116341;28;20301;-43
2022/07/02 06:46:25;;;;;;;1.93;1.00;;;18.80;99.90;;;;;;5115597;28;20228;-43
2022/07/02 06:48:51;;;;;;;5.90;1.23;;;19.10;99.90;;;;;;5116478;28;20326;-43
2022/07/02 06:51:16;;;;;;;6.73;0.70;;;19.30;99.90;;;;;;5115790;28;20175;-44
2022/07/02 06:53:42;;;;;;;2.57;0.77;;;19.50;99.90;;;;;;5115324;28;20211;-43
2022/07/02 06:56:08;;;;;;;4.13;0.70;;;19.60;99.90;;;;;;5097836;28;20524;-44
2022/07/02 06:58:33;;;;;;;3.23;0.80;;;19.80;99.90;;;;;;5116474;28;20561;-43
2022/07/02 07:00:59;;;;;;;4.90;0.80;;;20.00;99.90;;;;;;5101601;28;20189;-44
2022/07/02 07:03:24;;;;;;;3.07;0.90;;;20.20;99.90;;;;;;5117431;28;20201;-44
2022/07/02 07:05:52;;;;;;;3.17;0.73;;;20.40;99.90;;;;;;5118632;28;20182;-42
2022/07/02 07:08:17;;;;;;;2.37;0.90;;;20.50;99.90;;;;;;5118799;28;20166;-44
2022/07/02 07:10:43;;;;;;;1.20;0.67;;;20.80;99.90;;;;;;5119416;28;20209;-43
2022/07/02 07:13:09;;;;;;;2.13;0.80;;;21.00;99.90;;;;;;5118731;28;20189;-44
2022/07/02 07:15:34;;;;;;;1.67;0.70;;;21.20;99.90;;;;;;5118003;28;20186;-43
2022/07/02 07:18:00;;;;;;;2.13;0.73;;;21.50;99.90;;;;;;5117606;28;20642;-44
2022/07/02 07:20:29;;;;;;;4.07;0.97;;;21.60;99.90;;;;;;5116847;28;20198;-44
2022/07/02 07:22:56;;;;;;;6.47;1.03;;;21.70;99.90;;;;;;5117456;28;20673;-42
2022/07/02 07:25:22;;;;;;;4.47;0.90;;;21.90;99.90;;;;;;5118315;28;20201;-44
2022/07/02 07:27:48;;;;;;;2.57;1.00;;;22.00;99.90;;;;;;5118547;28;20182;-43
2022/07/02 07:30:15;;;;;;;4.63;0.73;;;22.20;99.90;;;;;;5118701;28;20198;-43
2022/07/02 07:32:41;;;;;;;1.70;0.47;;;22.40;99.90;;;;;;5118616;28;20186;-44
2022/07/02 07:35:07;;;;;;;4.83;0.97;;;22.60;99.90;;;;;;5119069;28;20182;-44
2022/07/02 07:37:32;;;;;;;2.43;0.90;;;22.70;99.90;;;;;;5101278;28;20182;-43
2022/07/02 07:39:58;;;;;;;4.40;1.23;;;22.90;99.90;;;;;;5118797;28;20290;-45
2022/07/02 07:42:23;;;;;;;3.67;0.83;;;22.90;99.90;;;;;;5117900;28;20174;-45
2022/07/02 07:44:50;;;;;;;4.77;1.00;;;23.10;99.90;;;;;;5117719;28;20700;-43
2022/07/02 07:47:15;;;;;;;4.67;0.90;;;23.30;99.90;;;;;;5117387;28;20209;-46
2022/07/02 07:49:41;;;;;;;3.67;0.73;;;23.40;99.90;;;;;;5119980;28;20232;-45
2022/07/02 07:52:07;;;;;;;2.87;0.70;;;23.50;99.90;;;;;;5133106;22;20273;-41
2022/07/02 07:54:33;;;;;;;1.90;0.63;;;23.60;99.90;;;;;;5117983;28;20539;-43
2022/07/02 07:56:59;;;;;;;1.00;0.60;;;23.80;99.90;;;;;;5118122;28;20516;-41
2022/07/02 07:59:24;;;;;;;1.43;0.90;;;23.90;99.90;;;;;;5082450;28;20201;-41
2022/07/02 08:01:50;;;;;;;1.80;0.87;;;24.00;99.90;;;;;;5118081;28;20174;-42
2022/07/02 08:04:16;;;;;;;2.17;0.80;;;24.20;99.90;;;;;;5117511;28;20609;-40
2022/07/02 08:06:41;;;;;;;0.60;0.57;;;24.30;99.90;;;;;;5099539;28;20170;-40
2022/07/02 08:09:07;;;;;;;2.70;0.60;;;24.40;99.90;;;;;;5117480;28;20224;-42
2022/07/02 08:11:32;;;;;;;1.90;0.70;;;24.40;99.90;;;;;;5117500;28;20174;-41
2022/07/02 08:13:58;;;;;;;1.47;0.70;;;24.40;99.90;;;;;;5099040;28;20551;-42
2022/07/02 08:16:24;;;;;;;0.93;0.60;;;24.30;99.90;;;;;;5099060;28;20178;-42
2022/07/02 08:18:49;;;;;;;2.43;0.90;;;24.40;99.90;;;;;;5099001;28;20224;-41
2022/07/02 08:21:15;;;;;;;2.63;0.70;;;24.50;99.90;;;;;;5098938;28;20181;-40
2022/07/02 08:23:42;;;;;;;3.47;0.60;;;24.70;99.90;;;;;;5117415;28;20206;-42
2022/07/02 08:26:08;;;;;;;1.27;0.70;;;24.80;99.90;;;;;;5098841;28;20205;-40
2022/07/02 08:28:34;;;;;;;2.70;0.70;;;24.90;99.90;;;;;;5117350;28;20194;-40
2022/07/02 08:31:00;;;;;;;1.07;0.67;;;24.90;99.90;;;;;;5099461;28;20174;-43
2022/07/02 08:33:27;;;;;;;4.40;0.60;;;24.90;99.90;;;;;;5117102;28;20170;-42
2022/07/02 08:35:52;;;;;;;2.23;0.50;;;25.10;99.90;;;;;;5117032;28;20705;-42
2022/07/02 08:38:18;;;;;;;1.73;0.60;;;25.20;99.90;;;;;;5117003;28;20182;-42
2022/07/02 08:40:44;;;;;;;4.77;0.90;;;25.40;99.90;;;;;;5116839;28;20198;-42
2022/07/02 08:43:14;;;;;;;4.73;0.40;;;25.50;99.90;;;;;;5116697;28;20195;-42
2022/07/02 08:45:42;;;;;;;2.43;0.60;;;25.60;99.90;;;;;;5116833;28;20239;-37
2022/07/02 08:48:09;;;;;;;1.40;0.50;;;25.60;99.90;;;;;;5116990;28;20182;-42
2022/07/02 08:50:36;;;;;;;0.90;0.57;;;25.70;99.90;;;;;;5116655;28;20194;-40
2022/07/02 08:53:04;;;;;;;2.07;0.50;;;25.70;99.90;;;;;;5098264;28;20198;-42
2022/07/02 08:55:32;;;;;;;0.97;0.57;;;25.80;99.90;;;;;;5098277;28;20189;-44
2022/07/02 08:57:58;;;;;;;0.93;0.50;;;25.80;99.90;;;;;;5116600;28;20186;-41
2022/07/02 09:00:24;;;;;;;2.63;0.67;;;25.90;99.90;;;;;;5115628;28;20285;-43
2022/07/02 09:02:53;;;;;;;2.67;0.80;;;25.90;99.90;;;;;;5098208;28;20202;-43
2022/07/02 09:05:20;;;;;;;1.17;0.50;;;26.00;99.90;;;;;;5116626;28;20197;-43
2022/07/02 09:07:47;;;;;;;1.03;0.53;;;26.10;99.90;;;;;;5116369;28;20176;-42
2022/07/02 09:10:17;;;;;;;1.67;0.60;;;26.10;99.90;;;;;;5116286;28;20562;-43
2022/07/02 09:12:43;;;;;;;1.07;0.57;;;26.20;99.90;;;;;;5116342;28;20627;-41
2022/07/02 09:15:10;;;;;;;1.73;0.60;;;26.20;99.90;;;;;;5116228;28;20178;-40
2022/07/02 09:17:36;;;;;;;4.73;0.60;;;26.20;99.90;;;;;;5116383;28;20182;-41
2022/07/02 09:20:02;;;;;;;0.73;0.50;;;26.30;99.90;;;;;;5116282;28;20189;-43
2022/07/02 09:22:39;;;;;;;0.93;0.40;;;26.30;99.90;;;;;;5116056;28;20303;-41
2022/07/02 09:25:16;;;;;;;1.43;0.50;;;26.20;99.90;;;;;;5116421;28;20178;-40
2022/07/02 09:27:42;;;;;;;1.23;0.70;;;26.20;99.90;;;;;;5116368;28;20165;-42
2022/07/02 09:30:10;;;;;;;1.70;0.80;;;26.30;99.90;;;;;;5115987;28;20197;-42
2022/07/02 09:32:44;;;;;;;2.17;0.50;;;26.30;99.90;;;;;;5116066;28;20295;-44
2022/07/02 09:35:23;;;;;;;1.47;0.63;;;26.30;99.90;;;;;;5116283;28;20547;-41
2022/07/02 09:37:50;;;;;;;0.87;0.60;;;26.30;99.90;;;;;;5115804;28;20298;-42
2022/07/02 09:40:17;;;;;;;3.50;1.10;;;26.50;99.90;;;;;;5115960;28;20197;-43
2022/07/02 09:42:47;;;;;;;2.13;0.40;;;26.60;99.90;;;;;;5115606;28;20264;-41
2022/07/02 09:45:14;;;;;;;1.23;0.60;;;26.70;99.90;;;;;;5115832;28;20185;-41
2022/07/02 09:47:49;;;;;;;0.87;0.47;;;26.80;99.90;;;;;;5115858;28;20175;-44
2022/07/02 09:50:17;;;;;;;1.60;0.60;;;27.00;99.90;;;;;;5115785;28;20290;-40
2022/07/02 09:52:54;;;;;;;0.97;0.50;;;27.00;99.90;;;;;;5115328;28;20682;-42
2022/07/02 09:55:28;;;;;;;0.87;0.50;;;27.20;99.90;;;;;;5097134;28;20174;-42
2022/07/02 09:57:56;;;;;;;0.97;0.53;;;27.30;99.90;;;;;;5115331;28;20292;-41
2022/07/02 10:00:24;;;;;;;2.03;0.60;;;27.30;99.90;;;;;;5115491;28;20228;-43
2022/07/02 10:02:51;;;;;;;3.38;0.65;;;27.30;99.90;;;;;;5115470;28;20194;-43
2022/07/02 10:05:23;;;;;;;1.30;0.73;;;27.30;99.90;;;;;;5115236;28;20243;-44
2022/07/02 10:07:49;;;;;;;1.23;0.57;;;27.30;99.90;;;;;;5115370;28;20155;-41
2022/07/02 10:10:15;;;;;;;3.30;0.65;;;27.40;99.90;;;;;;5115321;28;20186;-43
2022/07/02 10:12:42;;;;;;;0.85;0.50;;;27.50;99.90;;;;;;5114514;28;20205;-42
2022/07/02 10:15:12;;;;;;;1.63;0.50;;;27.50;99.90;;;;;;5115320;28;20595;-43
2022/07/02 10:17:39;;;;;;;0.55;0.47;;;27.60;99.90;;;;;;5115480;28;20182;-42
2022/07/02 10:20:05;;;;;;;2.05;0.55;;;27.60;99.90;;;;;;5114810;28;20186;-41
2022/07/02 10:22:31;;;;;;;1.70;0.60;;;27.70;99.90;;;;;;5114942;28;20182;-42
2022/07/02 10:24:58;;;;;;;2.33;0.50;;;27.60;99.90;;;;;;5115086;28;20197;-42
2022/07/02 10:27:24;;;;;;;2.35;0.50;;;27.70;99.90;;;;;;5114942;28;20178;-42
2022/07/02 10:29:51;;;;;;;1.60;0.60;;;27.70;99.90;;;;;;5114815;28;20186;-42
2022/07/02 10:32:40;;;;;;;0.73;0.40;;;27.60;99.40;;;;;;5114990;28;20182;-41
2022/07/02 10:35:11;;;;;;;1.42;0.60;;;27.40;99.90;;;;;;5114779;28;20528;-42
2022/07/02 10:37:39;;;;;;;0.60;0.57;;;27.50;99.90;;;;;;5114676;28;20163;-42
2022/07/02 10:40:05;;;;;;;0.50;0.50;;;27.50;99.90;;;;;;5115265;28;20182;-41
2022/07/02 10:42:41;;;;;;;0.60;0.45;;;27.50;99.90;;;;;;5114329;28;20166;-40
2022/07/02 10:45:15;;;;;;;1.08;0.40;;;27.50;99.90;;;;;;5114548;28;20618;-42
2022/07/02 10:48:00;;;;;;;0.35;0.35;;;27.70;99.90;;;;;;5097036;28;20178;-42
2022/07/02 10:50:42;;;;;;;0.88;0.40;;;27.80;99.90;;;;;;5114926;28;20189;-41
2022/07/02 10:53:09;;;;;;;0.90;0.40;;;27.90;99.90;;;;;;5095976;28;20207;-41
2022/07/02 10:55:35;;;;;;;1.67;0.60;;;27.90;99.90;;;;;;5114323;28;20178;-43
2022/07/02 10:58:04;;;;;;;0.93;0.50;;;27.90;99.90;;;;;;5114256;28;20175;-43
2022/07/02 11:00:35;;;;;;;2.95;0.47;;;28.00;99.90;;;;;;5095924;28;20205;-42
2022/07/02 11:03:18;;;;;;;3.45;0.60;;;28.10;99.90;;;;;;5114847;28;20190;-45
2022/07/02 11:06:03;;;;;;;1.80;0.60;;;28.30;99.90;;;;;;5098774;28;20219;-42
2022/07/02 11:08:46;;;;;;;2.75;0.57;;;28.30;99.60;;;;;;5114026;28;20170;-44
2022/07/02 11:11:18;;;;;;;0.60;0.50;;;28.30;99.30;;;;;;5114321;28;20185;-42
2022/07/02 11:13:48;;;;;;;2.67;0.68;;;28.30;99.90;;;;;;5114263;28;20189;-43
2022/07/02 11:16:23;;;;;;;0.88;0.43;;;28.40;99.90;;;;;;5114061;28;20163;-41
2022/07/02 11:18:50;;;;;;;1.30;0.60;;;28.60;99.90;;;;;;5113905;28;20307;-42
2022/07/02 11:21:17;;;;;;;1.85;0.80;;;28.60;97.40;;;;;;5095767;28;20268;-43
2022/07/02 11:23:43;;;;;;;2.67;1.20;;;28.30;99.60;;;;;;5113442;28;20738;-42
2022/07/02 11:26:08;;;;;;;0.90;0.60;;;28.30;99.90;;;;;;5114187;28;20178;-42
2022/07/02 11:28:35;;;;;;;2.33;0.57;;;28.20;95.50;;;;;;5114139;28;20631;-43
2022/07/02 11:31:04;;;;;;;1.60;0.70;;;27.80;94.50;;;;;;5095554;28;20174;-43
2022/07/02 11:33:33;;;;;;;1.38;0.60;;;27.60;98.20;;;;;;5113990;28;20265;-42
2022/07/02 11:35:59;;;;;;;1.75;0.68;;;27.70;99.90;;;;;;5113837;28;20181;-43
2022/07/02 11:38:25;;;;;;;3.22;0.70;;;28.00;99.90;;;;;;5113686;28;20234;-43
2022/07/02 11:40:50;;;;;;;1.25;0.70;;;28.10;99.30;;;;;;5113734;28;20265;-42
2022/07/02 11:43:18;;;;;;;0.95;0.40;;;28.30;99.90;;;;;;5114804;28;20281;-43
2022/07/02 11:45:44;;;;;;;0.60;0.60;;;28.50;99.70;;;;;;5115955;28;20178;-43
2022/07/02 11:48:23;;;;;;;1.17;0.60;;;28.70;99.90;;;;;;5114544;28;20613;-42
2022/07/02 11:50:59;;;;;;;1.38;0.52;;;28.90;99.90;;;;;;5113921;28;20200;-43
2022/07/02 11:53:25;;;;;;;3.75;0.70;;;29.10;99.90;;;;;;5113587;28;20185;-41
2022/07/02 11:55:51;;;;;;;0.63;0.45;;;29.30;98.80;;;;;;5113627;28;20187;-42
2022/07/02 11:58:17;;;;;;;5.15;0.70;;;29.40;99.90;;;;;;5113715;28;20174;-41
2022/07/02 12:00:43;;;;;;;1.48;0.50;;;29.40;97.20;;;;;;5113477;28;20255;-42
2022/07/02 12:03:13;;;;;;;1.52;0.60;;;29.40;95.60;;;;;;5113499;28;20572;-44
2022/07/02 12:05:51;;;;;;;1.67;0.70;;;29.30;95.60;;;;;;5113527;28;20178;-43
2022/07/02 12:08:17;;;;;;;2.05;0.50;;;29.30;94.30;;;;;;5113521;28;20295;-41
2022/07/02 12:10:43;;;;;;;1.05;0.60;;;29.20;96.00;;;;;;5113737;28;20690;-42
2022/07/02 12:13:09;;;;;;;0.50;0.50;;;29.30;96.30;;;;;;5113427;28;20586;-41
2022/07/02 12:15:45;;;;;;;2.30;0.50;;;29.30;96.40;;;;;;5113548;28;20173;-42
2022/07/02 12:18:18;;;;;;;1.98;0.60;;;29.40;92.70;;;;;;5113497;28;20635;-41
2022/07/02 12:20:43;;;;;;;1.45;0.50;;;29.10;92.50;;;;;;5113471;28;20190;-42
2022/07/02 12:23:09;;;;;;;1.88;0.70;;;29.30;97.00;;;;;;5113448;28;20252;-42
2022/07/02 12:25:45;;;;;;;2.22;0.52;;;29.40;98.00;;;;;;5114018;28;20237;-42
2022/07/02 12:30:56;;;;;;;0.90;0.75;;;29.80;99.10;;;;;;5113493;28;20173;-41
2022/07/02 12:33:35;;;;;;;3.72;0.63;;;29.80;93.20;;;;;;5113929;28;20257;-40
2022/07/02 12:36:06;;;;;;;0.75;0.52;;;29.80;97.30;;;;;;5115639;28;20170;-41
2022/07/02 12:38:44;;;;;;;1.67;0.50;;;29.90;97.40;;;;;;5117490;28;20185;-41
2022/07/02 12:41:11;;;;;;;1.30;0.50;;;30.20;99.60;;;;;;5117508;28;20185;-41
2022/07/02 12:43:36;;;;;;;1.00;0.45;;;30.20;95.70;;;;;;5117297;28;20202;-41
2022/07/02 12:46:08;;;;;;;0.75;0.45;;;30.30;97.60;;;;;;5117363;28;20174;-41
2022/07/02 12:48:44;;;;;;;1.55;0.60;;;30.50;98.90;;;;;;5098696;28;20182;-42
2022/07/02 12:51:11;;;;;;;1.00;0.50;;;30.60;99.30;;;;;;5117244;28;20208;-42
2022/07/02 12:53:37;;;;;;;1.95;0.50;;;30.60;95.80;;;;;;5117328;28;20553;-43
2022/07/02 12:56:04;;;;;;;1.73;0.50;;;30.60;94.70;;;;;;5117739;28;20181;-40
2022/07/02 12:58:31;;;;;;;0.88;0.43;;;30.60;97.50;;;;;;5117168;28;20170;-41